Time;durP1;ratioP1;P1;durP2;ratioP2;P2;SDS_P1;SDS_P2;PMS_P1;PMS_P2;Temp;Humidity;BMP_temperature;BMP_pressure;BME280_temperature;BME280_humidity;BME280_pressure;Samples;Min_cycle;Max_cycle;Signal;HPM_P1;HPM_P2
2023/08/24 00:00:33;;;;;;;2.20;0.95;;;;;;;17.55;100.00;98661.97;15271573;19;20007;-76
2023/08/24 00:06:09;;;;;;;6.05;1.00;;;;;;;17.51;100.00;98659.84;15273345;19;20097;-75
2023/08/24 00:11:36;;;;;;;3.25;1.10;;;;;;;17.43;100.00;98662.72;15276742;19;20018;-76
2023/08/24 00:17:01;;;;;;;2.58;0.90;;;;;;;17.39;100.00;98659.56;15276650;19;20035;-75
2023/08/24 00:22:28;;;;;;;2.60;1.17;;;;;;;17.36;100.00;98657.22;15278526;19;20013;-75
2023/08/24 00:27:54;;;;;;;2.25;1.00;;;;;;;17.32;100.00;98653.22;15277147;19;20013;-75
2023/08/24 00:33:20;;;;;;;2.05;1.00;;;;;;;17.27;100.00;98651.09;15262042;19;20369;-74
2023/08/24 00:38:50;;;;;;;2.28;1.10;;;;;;;17.21;100.00;98652.75;15272153;19;20490;-75
2023/08/24 00:44:16;;;;;;;5.07;1.17;;;;;;;17.16;100.00;98652.50;15272045;19;20481;-73
2023/08/24 00:49:42;;;;;;;2.20;1.00;;;;;;;17.11;100.00;98649.50;15275453;19;20011;-76
2023/08/24 00:55:11;;;;;;;3.30;1.10;;;;;;;17.08;100.00;98660.81;15272543;19;20474;-75
2023/08/24 01:00:38;;;;;;;2.13;1.10;;;;;;;17.04;100.00;98664.97;15291110;19;20010;-77
2023/08/24 01:06:09;;;;;;;2.63;1.05;;;;;;;17.00;100.00;98658.22;15277832;19;20682;-75
2023/08/24 01:11:46;;;;;;;2.10;1.20;;;;;;;16.96;100.00;98662.38;15289338;19;20010;-75
2023/08/24 01:17:18;;;;;;;4.22;1.20;;;;;;;16.88;100.00;98655.16;15290069;19;20014;-75
2023/08/24 01:22:51;;;;;;;2.80;1.10;;;;;;;16.85;100.00;98666.44;15290352;19;20006;-75
2023/08/24 01:28:22;;;;;;;3.53;1.20;;;;;;;16.81;100.00;98660.56;15293078;19;20011;-76
2023/08/24 01:33:47;;;;;;;1.63;1.10;;;;;;;16.76;100.00;98658.41;15286004;19;20043;-77
2023/08/24 01:39:24;;;;;;;2.42;1.20;;;;;;;16.74;100.00;98652.31;15287216;19;20085;-75
2023/08/24 01:44:59;;;;;;;1.83;1.10;;;;;;;16.72;100.00;98645.41;15296715;19;20011;-75
2023/08/24 01:50:24;;;;;;;1.95;1.05;;;;;;;16.69;100.00;98641.22;15328500;19;20482;-75
2023/08/24 01:55:49;;;;;;;4.22;1.10;;;;;;;16.70;100.00;98648.31;15281459;19;20030;-75
2023/08/24 02:01:12;;;;;;;1.63;1.02;;;;;;;16.71;100.00;98632.84;15284367;19;20035;-75
2023/08/24 02:06:44;;;;;;;3.38;1.20;;;;;;;16.70;100.00;98631.16;15276469;19;20018;-76
2023/08/24 02:12:09;;;;;;;1.75;1.23;;;;;;;16.69;100.00;98629.47;15280620;19;20070;-75
2023/08/24 02:17:38;;;;;;;3.45;1.25;;;;;;;16.64;100.00;98611.84;15303236;19;20014;-75
2023/08/24 02:23:03;;;;;;;2.25;1.20;;;;;;;16.62;100.00;98619.38;15292582;19;20015;-74
2023/08/24 02:28:28;;;;;;;3.15;1.23;;;;;;;16.59;100.00;98616.19;15285043;19;20014;-76
2023/08/24 02:33:56;;;;;;;2.50;1.27;;;;;;;16.58;100.00;98612.63;15280766;19;20014;-77
2023/08/24 02:39:21;;;;;;;2.05;1.30;;;;;;;16.56;100.00;98620.16;15279205;19;20002;-76
2023/08/24 02:44:48;;;;;;;3.38;1.23;;;;;;;16.56;100.00;98622.88;15277735;19;20014;-76
2023/08/24 02:50:16;;;;;;;2.42;1.40;;;;;;;16.54;100.00;98624.94;15284458;19;20070;-75
2023/08/24 02:55:41;;;;;;;1.70;1.10;;;;;;;16.54;100.00;98622.22;15282212;19;20043;-77
2023/08/24 03:01:06;;;;;;;4.22;1.40;;;;;;;16.49;100.00;98613.81;15284471;19;20031;-77
2023/08/24 03:06:41;;;;;;;3.05;1.25;;;;;;;16.48;100.00;98612.13;15282875;19;20042;-77
2023/08/24 03:12:06;;;;;;;3.20;1.30;;;;;;;16.44;100.00;98605.38;15281675;19;20039;-76
2023/08/24 03:17:32;;;;;;;2.40;1.17;;;;;;;16.38;100.00;98619.78;15281157;19;20252;-75
2023/08/24 03:23:00;;;;;;;2.13;1.23;;;;;;;16.33;100.00;98623.91;15275208;19;20022;-75
2023/08/24 03:28:24;;;;;;;4.32;1.27;;;;;;;16.29;100.00;98624.50;15281208;19;20098;-75
2023/08/24 03:33:49;;;;;;;5.78;1.40;;;;;;;16.22;100.00;98618.16;15277497;19;20011;-76
2023/08/24 03:39:16;;;;;;;4.13;1.38;;;;;;;16.12;100.00;98613.84;15279257;19;20018;-84
2023/08/24 03:44:42;;;;;;;3.25;1.20;;;;;;;16.06;100.00;98605.63;15272878;19;20518;-78
2023/08/24 03:50:06;;;;;;;4.80;1.40;;;;;;;16.00;100.00;98610.81;15278818;19;20014;-75
2023/08/24 03:55:35;;;;;;;2.95;1.45;;;;;;;15.93;100.00;98607.19;15272261;19;20010;-76
2023/08/24 04:01:00;;;;;;;2.35;1.40;;;;;;;15.85;100.00;98616.28;15276276;19;20010;-76
2023/08/24 04:06:31;;;;;;;3.47;1.40;;;;;;;15.82;100.00;98613.91;15274242;19;20047;-76
2023/08/24 04:11:59;;;;;;;1.98;1.10;;;;;;;15.78;100.00;98620.75;15275681;19;20101;-75
2023/08/24 04:17:24;;;;;;;4.78;1.40;;;;;;;15.74;100.00;98637.63;15273374;19;20011;-76
2023/08/24 04:22:48;;;;;;;4.20;1.33;;;;;;;15.72;100.00;98635.94;15270340;19;20010;-76
2023/08/24 04:28:16;;;;;;;4.55;1.30;;;;;;;15.71;100.00;98638.84;15276627;19;20408;-76
2023/08/24 04:33:42;;;;;;;3.58;1.27;;;;;;;15.70;100.00;98642.59;15301468;19;20347;-75
2023/08/24 04:39:06;;;;;;;2.92;1.40;;;;;;;15.67;100.00;98634.81;15302381;19;20828;-75
2023/08/24 04:44:35;;;;;;;5.88;1.52;;;;;;;15.68;100.00;98640.09;15301684;19;20017;-76
2023/08/24 04:49:59;;;;;;;3.88;1.42;;;;;;;15.67;100.00;98642.97;15300770;19;20031;-76
2023/08/24 04:55:24;;;;;;;3.65;1.60;;;;;;;15.68;100.00;98645.50;15299076;19;20026;-75
2023/08/24 05:00:51;;;;;;;2.28;1.38;;;;;;;15.69;100.00;98647.19;15303594;19;20353;-76
2023/08/24 05:06:22;;;;;;;3.97;1.50;;;;;;;15.72;100.00;98638.66;15299817;19;20899;-76
2023/08/24 05:11:53;;;;;;;4.30;1.38;;;;;;;15.75;100.00;98639.31;15303771;19;20082;-76
2023/08/24 05:17:21;;;;;;;7.05;1.67;;;;;;;15.77;100.00;98648.13;15305231;19;20018;-76
2023/08/24 05:22:47;;;;;;;12.05;2.38;;;;;;;15.82;100.00;98634.78;15294279;19;20015;-77
2023/08/24 05:28:12;;;;;;;4.05;1.38;;;;;;;15.90;100.00;98644.75;15304569;19;20538;-76
2023/08/24 05:33:39;;;;;;;4.20;1.48;;;;;;;15.97;100.00;98643.78;15306539;19;20477;-76
2023/08/24 05:39:04;;;;;;;3.53;1.30;;;;;;;16.06;100.00;98638.25;15316589;19;20417;-76
2023/08/24 05:44:29;;;;;;;8.10;1.50;;;;;;;16.14;100.00;98632.72;15327632;19;20031;-76
2023/08/24 05:49:57;;;;;;;4.05;1.55;;;;;;;16.27;100.00;98643.72;15292339;19;20021;-80
2023/08/24 05:55:22;;;;;;;3.67;1.30;;;;;;;16.36;100.00;98644.44;15284055;19;20062;-80
2023/08/24 06:00:47;;;;;;;2.08;1.30;;;;;;;16.47;100.00;98643.09;15320306;19;20013;-79
2023/08/24 06:06:21;;;;;;;4.30;1.40;;;;;;;16.59;100.00;98622.50;15293908;19;20011;-80
2023/08/24 06:11:46;;;;;;;5.45;1.40;;;;;;;16.71;100.00;98611.06;15300191;19;20010;-80
2023/08/24 06:17:10;;;;;;;4.43;1.40;;;;;;;16.84;100.00;98594.88;15302104;19;20019;-80
2023/08/24 06:22:37;;;;;;;3.60;1.30;;;;;;;17.00;100.00;98599.19;15312260;19;20022;-80
2023/08/24 06:28:03;;;;;;;4.53;1.30;;;;;;;17.19;100.00;98596.78;15304188;19;20078;-81
2023/08/24 06:33:30;;;;;;;9.15;1.70;;;;;;;17.37;100.00;98593.53;15306414;19;20018;-80
2023/08/24 06:38:58;;;;;;;4.07;1.40;;;;;;;17.50;100.00;98590.88;15307752;19;20027;-81
2023/08/24 06:44:24;;;;;;;7.40;1.50;;;;;;;17.65;100.00;98588.03;15295796;19;20014;-84
2023/08/24 06:49:48;;;;;;;4.20;1.33;;;;;;;17.91;100.00;98610.16;15303058;19;20025;-82
2023/08/24 06:55:15;;;;;;;2.55;1.10;;;;;;;18.08;100.00;98616.94;15296416;19;20007;-83
2023/08/24 07:00:40;;;;;;;6.00;1.50;;;;;;;18.25;100.00;98598.31;15297408;19;20018;-79
2023/08/24 07:06:12;;;;;;;3.03;1.40;;;;;;;18.42;100.00;98592.47;15296752;19;20047;-81
2023/08/24 07:11:39;;;;;;;1.50;1.10;;;;;;;18.61;100.00;98588.06;15297180;19;20371;-80
2023/08/24 07:17:04;;;;;;;2.92;1.38;;;;;;;18.84;100.00;98592.25;15301000;19;20035;-79
2023/08/24 07:22:29;;;;;;;3.65;1.20;;;;;;;19.04;100.00;98581.38;15299911;19;20078;-80
2023/08/24 07:27:58;;;;;;;5.15;1.48;;;;;;;19.27;100.00;98578.16;15296984;19;20032;-80
2023/08/24 07:33:24;;;;;;;4.95;1.50;;;;;;;19.52;100.00;98574.72;15291575;19;20027;-81
2023/08/24 07:38:49;;;;;;;8.02;1.70;;;;;;;19.79;100.00;98571.88;15295818;19;20006;-85
2023/08/24 07:44:18;;;;;;;2.22;1.15;;;;;;;20.00;100.00;98579.78;15290665;19;20669;-81
2023/08/24 07:49:44;;;;;;;2.80;1.10;;;;;;;20.24;100.00;98571.88;15298239;19;20082;-79
2023/08/24 07:55:11;;;;;;;2.50;1.00;;;;;;;20.46;100.00;98566.84;15297476;19;20031;-79
2023/08/24 08:00:39;;;;;;;6.00;1.08;;;;;;;20.66;100.00;98554.06;15318792;19;20014;-80
2023/08/24 08:06:04;;;;;;;7.18;1.45;;;;;;;20.92;100.00;98559.34;15283262;19;20422;-80
2023/08/24 08:11:30;;;;;;;4.88;1.40;;;;;;;21.25;100.00;98574.59;15292086;19;20077;-81
2023/08/24 08:16:58;;;;;;;3.50;1.17;;;;;;;21.63;100.00;98582.84;15284489;19;20017;-82
2023/08/24 08:22:23;;;;;;;3.03;1.20;;;;;;;21.91;100.00;98567.75;15284682;19;20041;-84
2023/08/24 08:27:48;;;;;;;2.60;1.10;;;;;;;22.24;100.00;98555.44;15281055;19;20024;-81
2023/08/24 08:33:15;;;;;;;4.10;1.10;;;;;;;22.55;100.00;98557.09;15276340;19;20032;-77
2023/08/24 08:38:40;;;;;;;4.43;0.93;;;;;;;22.89;100.00;98542.78;15276640;19;20011;-78
2023/08/24 08:44:05;;;;;;;4.05;1.15;;;;;;;23.19;100.00;98544.56;15279258;19;20014;-78
2023/08/24 08:49:35;;;;;;;2.42;1.00;;;;;;;23.48;100.00;98544.66;15276814;19;20014;-77
2023/08/24 08:54:59;;;;;;;1.83;0.90;;;;;;;23.68;100.00;98528.59;15278476;19;20007;-78
2023/08/24 09:00:24;;;;;;;5.25;1.10;;;;;;;23.87;100.00;98522.91;15281807;19;20031;-79
2023/08/24 09:05:53;;;;;;;1.90;0.90;;;;;;;23.98;100.00;98518.47;15281575;19;20074;-80
2023/08/24 09:11:18;;;;;;;2.85;1.10;;;;;;;24.08;100.00;98515.03;15280337;19;20498;-79
2023/08/24 09:16:43;;;;;;;3.20;0.95;;;;;;;24.10;100.00;98507.38;15279644;19;20017;-83
2023/08/24 09:22:10;;;;;;;3.05;1.10;;;;;;;24.09;100.00;98513.97;15304377;19;20014;-77
2023/08/24 09:27:35;;;;;;;5.88;1.02;;;;;;;24.11;100.00;98506.31;15293300;19;20014;-78
2023/08/24 09:33:05;;;;;;;3.20;0.90;;;;;;;24.19;100.00;98489.38;15298274;19;20010;-77
2023/08/24 09:38:35;;;;;;;3.25;0.90;;;;;;;24.34;100.00;98493.47;15304607;19;20097;-78
2023/08/24 09:44:06;;;;;;;4.10;1.02;;;;;;;24.44;100.00;98490.88;15298387;19;20433;-78
2023/08/24 09:49:22;;;;;;;3.30;0.90;;;;;;;24.52;100.00;98482.19;15327455;19;20060;-81
2023/08/24 09:54:52;;;;;;;2.97;0.90;;;;;;;24.59;100.00;98460.84;15298516;19;20017;-77
2023/08/24 10:00:22;;;;;;;3.83;1.10;;;;;;;24.70;100.00;98428.78;15296619;19;20011;-78
2023/08/24 10:05:55;;;;;;;3.40;1.08;;;;;;;24.82;100.00;98392.88;15289719;19;20018;-78
2023/08/24 10:11:31;;;;;;;2.05;1.00;;;;;;;24.96;100.00;98381.47;15295027;19;20007;-77
2023/08/24 10:16:57;;;;;;;2.70;0.90;;;;;;;25.07;100.00;98377.75;15281470;19;20567;-78
2023/08/24 10:22:22;;;;;;;1.20;0.88;;;;;;;25.15;100.00;98374.53;15284682;19;20391;-77
2023/08/24 10:27:53;;;;;;;1.45;0.80;;;;;;;25.29;100.00;98390.66;15277591;19;20640;-78
2023/08/24 10:33:20;;;;;;;2.08;0.88;;;;;;;25.39;100.00;98390.78;15281057;19;20399;-78
2023/08/24 10:38:50;;;;;;;4.28;1.00;;;;;;;25.46;100.00;98393.38;15282771;19;20391;-81
2023/08/24 10:44:23;;;;;;;2.30;0.70;;;;;;;25.54;100.00;98393.72;15281086;19;20014;-78
2023/08/24 10:49:48;;;;;;;1.08;0.80;;;;;;;25.64;100.00;98395.75;15285679;19;20021;-79
2023/08/24 10:55:25;;;;;;;1.25;0.70;;;;;;;25.72;100.00;98377.06;15279865;19;20457;-78
2023/08/24 11:00:58;;;;;;;0.88;0.73;;;;;;;25.77;100.00;98364.16;15283489;19;20082;-79
2023/08/24 11:06:25;;;;;;;2.72;0.80;;;;;;;25.89;100.00;98358.44;15289158;19;20019;-81
2023/08/24 11:12:05;;;;;;;1.58;0.70;;;;;;;26.13;100.00;98355.34;14785023;19;10000271;-77
2023/08/24 11:17:38;;;;;;;1.98;0.80;;;;;;;26.46;100.00;98337.63;15288027;19;20082;-77
2023/08/24 11:23:06;;;;;;;10.65;0.80;;;;;;;26.63;100.00;98341.28;15290692;19;20031;-79
2023/08/24 11:28:33;;;;;;;1.50;0.80;;;;;;;26.65;97.58;98334.38;15281937;19;20089;-78
2023/08/24 11:34:04;;;;;;;1.50;0.85;;;;;;;26.77;100.00;98340.50;15273594;19;20015;-78
2023/08/24 11:39:32;;;;;;;1.27;0.77;;;;;;;26.98;100.00;98332.34;15279476;19;20021;-77
2023/08/24 11:44:58;;;;;;;4.80;0.93;;;;;;;27.19;97.74;98324.09;15280071;19;20094;-79
2023/08/24 11:50:26;;;;;;;2.60;0.90;;;;;;;27.28;96.96;98322.47;15273973;19;20010;-78
2023/08/24 11:55:51;;;;;;;2.83;0.75;;;;;;;27.32;97.38;98320.81;15282040;19;20473;-76
2023/08/24 12:01:33;;;;;;;1.77;0.80;;;;;;;27.43;100.00;98326.38;15294896;19;20038;-79
2023/08/24 12:07:07;;;;;;;3.92;0.90;;;;;;;27.57;100.00;98323.91;15283395;19;20047;-82
2023/08/24 12:12:32;;;;;;;3.05;0.80;;;;;;;27.68;94.98;98312.59;15282540;19;20772;-79
2023/08/24 12:17:58;;;;;;;2.78;0.85;;;;;;;27.74;95.11;98316.19;15277217;19;20016;-78
2023/08/24 12:23:29;;;;;;;4.25;0.90;;;;;;;27.80;91.82;98314.25;15276746;19;20040;-79
2023/08/24 12:28:58;;;;;;;41.65;1.90;;;;;;;27.94;91.95;98303.44;15284156;19;20074;-78
2023/08/24 12:34:24;;;;;;;5.10;0.90;;;;;;;28.13;93.40;98290.69;15275752;19;20018;-77
2023/08/24 12:39:53;;;;;;;2.60;0.88;;;;;;;28.33;92.10;98265.97;15280358;19;20014;-80
2023/08/24 12:45:18;;;;;;;1.63;0.88;;;;;;;28.52;86.03;98269.78;15278676;19;20007;-78
2023/08/24 12:50:43;;;;;;;4.50;0.80;;;;;;;28.72;84.34;98249.50;15300175;19;20010;-78
2023/08/24 12:56:11;;;;;;;3.75;0.95;;;;;;;28.97;79.43;98246.88;15311687;19;20010;-76
2023/08/24 13:01:42;;;;;;;4.13;0.90;;;;;;;29.20;77.39;98229.50;15321995;19;20011;-75
2023/08/24 13:07:16;;;;;;;4.00;0.90;;;;;;;29.44;72.63;98223.25;15292794;19;20018;-76
2023/08/24 13:12:45;;;;;;;1.73;0.80;;;;;;;29.69;69.02;98210.25;15289261;19;20015;-77
2023/08/24 13:18:09;;;;;;;3.45;0.90;;;;;;;29.92;68.30;98205.03;15290503;19;20058;-76
2023/08/24 13:23:34;;;;;;;2.28;0.90;;;;;;;30.27;63.89;98214.91;15298689;19;20392;-78
2023/08/24 13:29:01;;;;;;;0.95;0.70;;;;;;;30.53;57.33;98199.84;15294159;19;20010;-78
2023/08/24 13:34:26;;;;;;;3.13;0.80;;;;;;;30.83;53.87;98204.19;15302714;19;20510;-75
2023/08/24 13:39:51;;;;;;;1.88;1.00;;;;;;;31.14;55.38;98189.88;15339537;19;20024;-75
2023/08/24 13:45:20;;;;;;;1.42;0.80;;;;;;;31.30;51.45;98184.03;15299126;19;20431;-75
2023/08/24 13:50:44;;;;;;;1.45;0.85;;;;;;;31.32;52.86;98170.63;15294410;19;20474;-75
2023/08/24 13:56:09;;;;;;;2.05;0.70;;;;;;;31.18;53.22;98154.72;15287280;19;20011;-78
2023/08/24 14:01:36;;;;;;;3.38;0.93;;;;;;;31.54;52.80;98153.28;15284894;19;20014;-78
2023/08/24 14:07:07;;;;;;;2.90;0.70;;;;;;;31.92;52.95;98146.72;15316173;19;20014;-74
2023/08/24 14:12:33;;;;;;;3.08;0.80;;;;;;;32.10;52.17;98134.66;15317267;19;20018;-74
2023/08/24 14:18:00;;;;;;;1.00;0.60;;;;;;;32.31;51.83;98130.63;15277649;19;20014;-76
2023/08/24 14:23:25;;;;;;;3.20;0.88;;;;;;;32.39;51.71;98132.69;15284670;19;20011;-77
2023/08/24 14:29:00;;;;;;;5.95;0.77;;;;;;;32.31;51.05;98136.19;15281520;19;20018;-78
2023/08/24 14:34:28;;;;;;;3.17;0.90;;;;;;;31.86;50.48;98136.84;15274146;19;20015;-77
2023/08/24 14:39:52;;;;;;;6.18;0.98;;;;;;;31.70;54.19;98134.34;15286916;19;20017;-77
2023/08/24 14:45:18;;;;;;;1.20;0.60;;;;;;;31.67;53.87;98130.19;15277671;19;20039;-79
2023/08/24 14:50:49;;;;;;;1.80;0.70;;;;;;;31.78;53.02;98114.13;15287126;19;20014;-77
2023/08/24 14:56:14;;;;;;;3.88;0.80;;;;;;;31.71;53.02;98107.31;15279544;19;20070;-79
2023/08/24 15:01:39;;;;;;;1.80;0.75;;;;;;;31.61;53.92;98086.06;15286206;19;20015;-76
2023/08/24 15:07:07;;;;;;;1.70;0.60;;;;;;;31.41;54.35;98076.13;15277114;19;20022;-78
2023/08/24 15:12:31;;;;;;;3.30;0.80;;;;;;;31.39;55.92;98070.03;15283146;19;20047;-76
2023/08/24 15:17:57;;;;;;;2.88;0.77;;;;;;;31.60;55.20;98076.03;15238449;19;20025;-78
2023/08/24 15:23:33;;;;;;;4.00;0.80;;;;;;;31.71;54.45;98085.03;15276926;19;20010;-76
2023/08/24 15:29:15;;;;;;;2.03;0.80;;;;;;;32.09;52.56;98093.16;15283237;19;20006;-77
2023/08/24 15:34:39;;;;;;;3.25;0.80;;;;;;;32.46;53.71;98101.59;15271413;19;20042;-79
2023/08/24 15:40:08;;;;;;;1.08;0.80;;;;;;;32.55;51.58;98086.56;15280772;19;20088;-76
2023/08/24 15:45:33;;;;;;;3.67;0.70;;;;;;;32.54;53.78;98072.97;15278038;19;20617;-74
2023/08/24 15:51:06;;;;;;;1.98;0.90;;;;;;;32.27;53.52;98074.69;15278037;19;20026;-78
2023/08/24 15:56:34;;;;;;;1.45;0.77;;;;;;;31.97;53.06;98072.22;15274018;19;20017;-76
2023/08/24 16:01:59;;;;;;;2.67;0.90;;;;;;;31.72;53.55;98081.13;15282903;19;20018;-77
2023/08/24 16:07:24;;;;;;;2.75;0.90;;;;;;;31.46;54.20;98084.41;15268070;19;20015;-75
2023/08/24 16:12:51;;;;;;;1.35;1.00;;;;;;;31.20;55.62;98099.59;15276646;19;20018;-77
2023/08/24 16:18:16;;;;;;;3.33;0.80;;;;;;;30.91;55.76;98083.09;15273388;19;20010;-78
2023/08/24 16:23:42;;;;;;;1.92;0.80;;;;;;;30.58;56.95;98067.22;15268647;19;20058;-75
2023/08/24 16:29:10;;;;;;;3.42;0.80;;;;;;;30.24;57.00;98064.66;15274657;19;20038;-76
2023/08/24 16:34:34;;;;;;;2.65;0.90;;;;;;;30.03;58.83;98056.63;15274011;19;20246;-76
2023/08/24 16:40:00;;;;;;;2.90;1.02;;;;;;;29.83;58.45;98049.34;15271201;19;20078;-77
2023/08/24 16:45:28;;;;;;;2.40;1.00;;;;;;;29.66;60.29;98019.31;15271433;19;20011;-74
2023/08/24 16:50:54;;;;;;;1.60;0.80;;;;;;;29.47;62.21;98022.84;15279555;19;20010;-78
2023/08/24 16:56:18;;;;;;;3.58;0.98;;;;;;;29.30;64.70;98020.50;15274358;19;20097;-79
2023/08/24 17:01:46;;;;;;;5.45;1.00;;;;;;;29.07;68.42;98016.59;15286458;19;20604;-79
2023/08/24 17:07:17;;;;;;;2.45;0.95;;;;;;;28.88;68.39;98033.97;15276551;19;20019;-78
2023/08/24 17:12:42;;;;;;;2.15;1.05;;;;;;;28.65;69.16;98030.00;15271841;19;20022;-76
2023/08/24 17:18:09;;;;;;;4.85;1.27;;;;;;;28.56;71.16;98031.72;15277671;19;20018;-78
2023/08/24 17:23:34;;;;;;;1.65;0.90;;;;;;;28.54;80.52;98029.22;15274895;19;20474;-77
2023/08/24 17:28:58;;;;;;;4.45;1.05;;;;;;;28.47;83.92;98020.44;15274321;19;20006;-76
2023/08/24 17:34:26;;;;;;;4.80;1.05;;;;;;;28.36;92.67;97994.75;15268376;19;20463;-77
2023/08/24 17:39:50;;;;;;;2.28;1.13;;;;;;;28.17;100.00;98005.69;15279056;19;20018;-77
2023/08/24 17:45:18;;;;;;;6.80;1.30;;;;;;;28.01;100.00;98009.66;15276312;19;20050;-77
2023/08/24 17:50:46;;;;;;;7.57;1.25;;;;;;;27.75;100.00;98007.00;15288490;19;20429;-78
2023/08/24 17:56:11;;;;;;;4.70;1.08;;;;;;;27.57;100.00;98006.56;15260982;19;20010;-77
2023/08/24 18:01:35;;;;;;;4.00;0.90;;;;;;;27.41;96.86;98002.16;15284651;19;20043;-78
2023/08/24 18:07:03;;;;;;;4.70;0.90;;;;;;;27.27;93.09;97994.44;15278173;19;20759;-78
2023/08/24 18:12:27;;;;;;;2.38;1.08;;;;;;;27.18;96.67;97976.78;15288110;19;20091;-75
2023/08/24 18:17:52;;;;;;;3.33;1.10;;;;;;;26.94;99.14;97955.28;15275808;19;20010;-78
2023/08/24 18:23:20;;;;;;;4.03;1.00;;;;;;;26.66;100.00;97935.41;15292863;19;20023;-78
2023/08/24 18:28:48;;;;;;;5.07;1.20;;;;;;;26.48;100.00;97936.00;15308004;19;20018;-76
2023/08/24 18:34:05;;;;;;;6.72;1.30;;;;;;;26.28;100.00;97935.72;15341722;19;20021;-76
2023/08/24 18:39:34;;;;;;;3.92;1.10;;;;;;;26.13;100.00;97933.78;15271772;19;20386;-76
2023/08/24 18:45:02;;;;;;;5.50;1.10;;;;;;;25.98;100.00;97923.53;15272054;19;20625;-75
2023/08/24 18:50:30;;;;;;;5.60;1.20;;;;;;;25.88;100.00;97925.44;15274589;19;20037;-78
2023/08/24 18:56:01;;;;;;;6.32;1.15;;;;;;;25.81;100.00;97917.44;15273755;19;20022;-76
2023/08/24 19:01:25;;;;;;;7.70;1.10;;;;;;;25.73;100.00;97902.25;15278309;19;20096;-73
2023/08/24 19:06:52;;;;;;;9.43;1.25;;;;;;;25.62;100.00;97867.47;15264173;19;20022;-72
2023/08/24 19:12:20;;;;;;;7.55;1.20;;;;;;;25.54;100.00;97891.75;15273091;19;20024;-74
2023/08/24 19:17:45;;;;;;;3.83;1.20;;;;;;;25.43;100.00;97872.66;15269732;19;20009;-74
2023/08/24 19:23:11;;;;;;;4.15;1.20;;;;;;;25.37;100.00;97886.44;15265028;19;20039;-70
2023/08/24 19:28:39;;;;;;;3.97;1.27;;;;;;;25.30;100.00;97880.31;15304945;19;20328;-73
2023/08/24 19:34:04;;;;;;;5.47;1.20;;;;;;;25.23;100.00;97880.56;15275926;19;20011;-73
2023/08/24 19:39:31;;;;;;;5.70;1.38;;;;;;;25.11;100.00;97877.22;15265196;19;20726;-73
2023/08/24 19:45:00;;;;;;;8.57;1.40;;;;;;;25.00;100.00;97872.78;15266659;19;20354;-76
2023/08/24 19:50:26;;;;;;;5.60;1.20;;;;;;;24.92;100.00;97887.91;15271251;19;20354;-74
2023/08/24 19:55:50;;;;;;;10.80;1.25;;;;;;;24.78;100.00;97898.56;15247862;19;20631;-71
2023/08/24 20:01:18;;;;;;;9.68;1.67;;;;;;;24.46;100.00;97897.53;15269781;19;20038;-72
2023/08/24 20:06:43;;;;;;;8.50;1.38;;;;;;;24.17;100.00;97880.50;15258971;19;20397;-75
2023/08/24 20:12:08;;;;;;;7.90;1.35;;;;;;;24.00;100.00;97884.25;15268505;19;20473;-74
2023/08/24 20:17:42;;;;;;;3.65;1.40;;;;;;;23.92;100.00;97884.72;15267965;19;20030;-74
2023/08/24 20:23:08;;;;;;;3.10;1.23;;;;;;;23.89;100.00;97890.72;15266762;19;20468;-75
2023/08/24 20:28:36;;;;;;;4.38;1.33;;;;;;;23.89;100.00;97885.22;15264121;19;20366;-70
2023/08/24 20:34:04;;;;;;;3.33;1.50;;;;;;;23.85;100.00;97879.44;15263759;19;20370;-74
2023/08/24 20:39:30;;;;;;;2.88;1.20;;;;;;;23.76;100.00;97869.97;15259101;19;20022;-72
2023/08/24 20:44:56;;;;;;;3.40;1.10;;;;;;;23.63;100.00;97860.22;15263229;19;20466;-73
2023/08/24 20:50:23;;;;;;;2.25;1.15;;;;;;;23.57;100.00;97843.94;15267234;19;20082;-74
2023/08/24 20:55:48;;;;;;;2.55;1.17;;;;;;;23.47;100.00;97822.69;15264807;19;20050;-71
2023/08/24 21:01:12;;;;;;;3.17;1.30;;;;;;;23.34;100.00;97800.00;15260138;19;20521;-71
2023/08/24 21:06:40;;;;;;;5.72;1.38;;;;;;;23.28;100.00;97748.84;15259164;19;20011;-71
2023/08/24 21:12:05;;;;;;;4.53;1.15;;;;;;;23.27;100.00;97705.97;15261284;19;20106;-74
2023/08/24 21:17:30;;;;;;;5.88;1.30;;;;;;;23.32;100.00;97722.53;15279877;19;20021;-71
2023/08/24 21:22:57;;;;;;;6.55;1.30;;;;;;;23.41;100.00;97741.28;15280842;19;20019;-76
2023/08/24 21:28:22;;;;;;;3.72;1.20;;;;;;;23.39;100.00;97761.59;15281441;19;20008;-74
2023/08/24 21:33:47;;;;;;;4.55;1.38;;;;;;;23.32;100.00;97782.97;15275297;19;20011;-71
2023/08/24 21:39:15;;;;;;;3.30;1.27;;;;;;;23.24;100.00;97797.16;15280323;19;20014;-71
2023/08/24 21:44:40;;;;;;;2.58;1.40;;;;;;;23.15;100.00;97801.44;15272481;19;20066;-71
2023/08/24 21:50:06;;;;;;;3.92;1.40;;;;;;;23.07;100.00;97775.25;15281036;19;20054;-76
2023/08/24 21:55:38;;;;;;;2.67;1.40;;;;;;;23.01;100.00;97774.38;15270880;19;20014;-72
2023/08/24 22:01:11;;;;;;;3.95;1.30;;;;;;;22.98;100.00;97780.41;15267781;19;20010;-71
2023/08/24 22:06:36;;;;;;;4.68;1.23;;;;;;;22.92;100.00;97770.44;15273202;19;20453;-77
2023/08/24 22:12:04;;;;;;;3.58;1.30;;;;;;;22.87;100.00;97775.91;15275288;19;20039;-72
2023/08/24 22:17:30;;;;;;;3.55;1.30;;;;;;;22.70;100.00;97812.47;15271951;19;20685;-71
2023/08/24 22:22:54;;;;;;;6.78;1.40;;;;;;;22.47;100.00;97806.16;15276386;19;20025;-73
2023/08/24 22:28:21;;;;;;;3.95;1.40;;;;;;;22.33;100.00;97804.81;15277501;19;20481;-75
2023/08/24 22:33:46;;;;;;;5.90;1.50;;;;;;;22.23;100.00;97827.44;15268334;19;20028;-76
2023/08/24 22:39:10;;;;;;;4.78;1.40;;;;;;;22.15;100.00;97839.72;15278588;19;20027;-72
2023/08/24 22:44:38;;;;;;;2.92;1.35;;;;;;;22.12;100.00;97851.19;15277324;19;20025;-73
2023/08/24 22:50:06;;;;;;;2.88;1.20;;;;;;;22.11;100.00;97845.94;15274113;19;20019;-73
2023/08/24 22:55:31;;;;;;;2.80;1.50;;;;;;;22.03;100.00;97844.47;15269733;19;20082;-73
2023/08/24 23:00:59;;;;;;;4.70;1.60;;;;;;;22.00;100.00;97864.16;15271123;19;20774;-76
2023/08/24 23:06:31;;;;;;;3.10;1.50;;;;;;;21.98;100.00;97863.56;15262021;19;20014;-71
2023/08/24 23:11:55;;;;;;;5.45;1.70;;;;;;;21.97;100.00;97862.75;15275482;19;20364;-73
2023/08/24 23:17:26;;;;;;;3.78;1.75;;;;;;;21.94;100.00;97856.91;15272848;19;20010;-74
2023/08/24 23:22:52;;;;;;;3.58;1.67;;;;;;;21.91;100.00;97854.69;15268619;19;20355;-76
2023/08/24 23:28:17;;;;;;;2.47;1.50;;;;;;;21.85;100.00;97856.50;15271825;19;20442;-72
2023/08/24 23:33:44;;;;;;;3.17;1.60;;;;;;;21.80;100.00;97840.81;15268253;19;20082;-75
2023/08/24 23:39:11;;;;;;;5.53;2.00;;;;;;;21.73;100.00;97844.78;15263828;19;20014;-74
2023/08/24 23:44:37;;;;;;;4.03;1.65;;;;;;;21.68;100.00;97853.75;15270237;19;20017;-75
2023/08/24 23:50:05;;;;;;;6.15;1.50;;;;;;;21.66;100.00;97844.94;15273051;19;20006;-72
2023/08/24 23:55:30;;;;;;;2.42;1.42;;;;;;;21.66;100.00;97839.47;15264872;19;20018;-73
